Terminal Aerodrome Forecast
Issued by NWS

Home | Current Version | Previous Version | Text Only | Print | Product List | Glossary On
Versions: 1 2 3 4 5 6 7 8 9 10 11 12
000
FTUS46 KSEW 171131
TAFCLM
TAF
KCLM 171131Z 1712/1812 VRB04KT P6SM -RA OVC070
     FM171400 VRB04KT P6SM -RA OVC040
     FM180100 VRB04KT P6SM -RA OVC025=

USA.gov is the U.S. government's official web portal to all federal, state and local government web resources and services.